sensor_id;sensor_type;location;lat;lon;timestamp;pressure;altitude;pressure_sealevel;temperature;humidity
39613;BME280;25303;48.896;13.342;2022-10-31T00:01:38;93304.53;;;16.63;41.89
39613;BME280;25303;48.896;13.342;2022-10-31T00:04:21;93302.31;;;16.60;42.31
39613;BME280;25303;48.896;13.342;2022-10-31T00:07:05;93297.47;;;16.57;42.07
39613;BME280;25303;48.896;13.342;2022-10-31T00:09:48;93303.84;;;16.54;42.25
39613;BME280;25303;48.896;13.342;2022-10-31T00:12:31;93298.81;;;16.53;42.20
39613;BME280;25303;48.896;13.342;2022-10-31T00:15:14;93301.78;;;16.50;42.61
39613;BME280;25303;48.896;13.342;2022-10-31T00:17:58;93300.34;;;16.47;42.56
39613;BME280;25303;48.896;13.342;2022-10-31T00:20:41;93302.31;;;16.45;42.32
39613;BME280;25303;48.896;13.342;2022-10-31T00:23:26;93307.72;;;16.44;42.42
39613;BME280;25303;48.896;13.342;2022-10-31T00:26:09;93302.06;;;16.40;42.16
39613;BME280;25303;48.896;13.342;2022-10-31T00:28:52;93295.63;;;16.36;42.21
39613;BME280;25303;48.896;13.342;2022-10-31T00:31:35;93300.34;;;16.32;42.53
39613;BME280;25303;48.896;13.342;2022-10-31T00:34:18;93297.88;;;16.24;42.39
39613;BME280;25303;48.896;13.342;2022-10-31T00:37:01;93298.84;;;16.23;42.41
39613;BME280;25303;48.896;13.342;2022-10-31T00:39:45;93299.22;;;16.20;42.68
39613;BME280;25303;48.896;13.342;2022-10-31T00:42:30;93300.38;;;16.17;42.89
39613;BME280;25303;48.896;13.342;2022-10-31T00:45:14;93297.31;;;16.14;42.88
39613;BME280;25303;48.896;13.342;2022-10-31T00:47:57;93301.28;;;16.09;43.06
39613;BME280;25303;48.896;13.342;2022-10-31T00:50:42;93310.22;;;16.07;42.64
39613;BME280;25303;48.896;13.342;2022-10-31T00:53:25;93310.59;;;16.04;42.79
39613;BME280;25303;48.896;13.342;2022-10-31T00:56:09;93307.72;;;15.99;42.66
39613;BME280;25303;48.896;13.342;2022-10-31T00:58:52;93309.41;;;15.91;42.73
39613;BME280;25303;48.896;13.342;2022-10-31T01:01:35;93308.16;;;15.87;42.37
39613;BME280;25303;48.896;13.342;2022-10-31T01:04:18;93306.69;;;15.85;42.79
39613;BME280;25303;48.896;13.342;2022-10-31T01:07:03;93298.44;;;15.81;43.11
39613;BME280;25303;48.896;13.342;2022-10-31T01:09:46;93303.84;;;15.79;42.34
39613;BME280;25303;48.896;13.342;2022-10-31T01:12:35;93295.84;;;15.81;42.52
39613;BME280;25303;48.896;13.342;2022-10-31T01:15:20;93295.03;;;15.80;42.04
39613;BME280;25303;48.896;13.342;2022-10-31T01:18:03;93301.41;;;15.78;42.28
39613;BME280;25303;48.896;13.342;2022-10-31T01:20:46;93303.53;;;15.74;42.51
39613;BME280;25303;48.896;13.342;2022-10-31T01:23:29;93301.50;;;15.70;42.40
39613;BME280;25303;48.896;13.342;2022-10-31T01:26:14;93298.41;;;15.66;42.82
39613;BME280;25303;48.896;13.342;2022-10-31T01:29:00;93298.94;;;15.61;43.26
39613;BME280;25303;48.896;13.342;2022-10-31T01:31:43;93293.47;;;15.56;43.50
39613;BME280;25303;48.896;13.342;2022-10-31T01:34:26;93291.25;;;15.53;43.30
39613;BME280;25303;48.896;13.342;2022-10-31T01:37:09;93285.59;;;15.49;43.33
39613;BME280;25303;48.896;13.342;2022-10-31T01:39:52;93293.75;;;15.46;43.08
39613;BME280;25303;48.896;13.342;2022-10-31T01:42:35;93292.28;;;15.44;43.00
39613;BME280;25303;48.896;13.342;2022-10-31T01:45:20;93289.69;;;15.44;42.87
39613;BME280;25303;48.896;13.342;2022-10-31T01:48:03;93294.25;;;15.42;43.02
39613;BME280;25303;48.896;13.342;2022-10-31T01:50:48;93290.22;;;15.39;43.03
39613;BME280;25303;48.896;13.342;2022-10-31T01:53:31;93288.63;;;15.38;43.29
39613;BME280;25303;48.896;13.342;2022-10-31T01:56:16;93287.97;;;15.36;42.80
39613;BME280;25303;48.896;13.342;2022-10-31T01:59:01;93288.16;;;15.34;43.14
39613;BME280;25303;48.896;13.342;2022-10-31T02:01:47;93287.53;;;15.32;43.23
39613;BME280;25303;48.896;13.342;2022-10-31T02:04:33;93288.50;;;15.31;43.13
39613;BME280;25303;48.896;13.342;2022-10-31T02:07:23;93283.50;;;15.30;43.22
39613;BME280;25303;48.896;13.342;2022-10-31T02:10:10;93285.47;;;15.28;43.36
39613;BME280;25303;48.896;13.342;2022-10-31T02:12:55;93286.44;;;15.27;43.34
39613;BME280;25303;48.896;13.342;2022-10-31T02:15:40;93284.00;;;15.25;43.45
39613;BME280;25303;48.896;13.342;2022-10-31T02:18:29;93285.97;;;15.23;43.37
39613;BME280;25303;48.896;13.342;2022-10-31T02:21:16;93280.16;;;15.21;43.50
39613;BME280;25303;48.896;13.342;2022-10-31T02:27:31;93278.72;;;15.18;43.40
39613;BME280;25303;48.896;13.342;2022-10-31T02:30:23;93284.09;;;15.17;43.35
39613;BME280;25303;48.896;13.342;2022-10-31T02:33:15;93285.22;;;15.14;43.34
39613;BME280;25303;48.896;13.342;2022-10-31T02:36:07;93279.25;;;15.14;43.19
39613;BME280;25303;48.896;13.342;2022-10-31T02:39:01;93278.25;;;15.15;43.22
39613;BME280;25303;48.896;13.342;2022-10-31T02:42:01;93284.88;;;15.17;42.93
39613;BME280;25303;48.896;13.342;2022-10-31T02:44:51;93287.31;;;15.19;42.95
39613;BME280;25303;48.896;13.342;2022-10-31T02:47:38;93277.09;;;15.17;43.33
39613;BME280;25303;48.896;13.342;2022-10-31T02:50:26;93279.69;;;15.17;43.44
39613;BME280;25303;48.896;13.342;2022-10-31T02:53:14;93279.69;;;15.17;43.21
39613;BME280;25303;48.896;13.342;2022-10-31T02:55:59;93276.47;;;15.15;43.22
39613;BME280;25303;48.896;13.342;2022-10-31T02:58:47;93279.25;;;15.14;43.16
39613;BME280;25303;48.896;13.342;2022-10-31T03:01:58;93280.84;;;15.15;43.39
39613;BME280;25303;48.896;13.342;2022-10-31T03:04:54;93280.22;;;15.13;43.13
39613;BME280;25303;48.896;13.342;2022-10-31T03:07:50;93279.25;;;15.14;43.40
39613;BME280;25303;48.896;13.342;2022-10-31T03:10:40;93283.78;;;15.12;43.57
39613;BME280;25303;48.896;13.342;2022-10-31T03:13:32;93282.38;;;15.09;43.55
39613;BME280;25303;48.896;13.342;2022-10-31T03:16:25;93286.28;;;15.05;43.70
39613;BME280;25303;48.896;13.342;2022-10-31T03:19:14;93284.84;;;15.02;43.86
39613;BME280;25303;48.896;13.342;2022-10-31T03:22:02;93290.38;;;14.99;44.13
39613;BME280;25303;48.896;13.342;2022-10-31T03:24:49;93278.56;;;14.97;43.98
39613;BME280;25303;48.896;13.342;2022-10-31T03:27:36;93284.34;;;14.99;43.97
39613;BME280;25303;48.896;13.342;2022-10-31T03:30:21;93287.94;;;14.98;44.27
39613;BME280;25303;48.896;13.342;2022-10-31T03:33:16;93289.91;;;14.96;44.38
39613;BME280;25303;48.896;13.342;2022-10-31T03:36:02;93285.88;;;14.93;44.72
39613;BME280;25303;48.896;13.342;2022-10-31T03:38:47;93287.22;;;14.89;44.75
39613;BME280;25303;48.896;13.342;2022-10-31T03:41:39;93290.13;;;14.86;44.56
39613;BME280;25303;48.896;13.342;2022-10-31T03:44:24;93286.09;;;14.83;44.63
39613;BME280;25303;48.896;13.342;2022-10-31T03:47:13;93288.41;;;14.78;44.69
39613;BME280;25303;48.896;13.342;2022-10-31T03:49:57;93294.56;;;14.77;44.63
39613;BME280;25303;48.896;13.342;2022-10-31T03:52:43;93292.31;;;14.74;44.69
39613;BME280;25303;48.896;13.342;2022-10-31T03:55:32;93289.91;;;14.72;44.83
39613;BME280;25303;48.896;13.342;2022-10-31T03:58:21;93291.84;;;14.70;44.65
39613;BME280;25303;48.896;13.342;2022-10-31T04:01:11;93285.06;;;14.69;44.58
39613;BME280;25303;48.896;13.342;2022-10-31T04:03:57;93300.09;;;14.66;44.97
39613;BME280;25303;48.896;13.342;2022-10-31T04:06:42;93297.66;;;14.64;44.74
39613;BME280;25303;48.896;13.342;2022-10-31T04:09:29;93298.31;;;14.66;44.39
39613;BME280;25303;48.896;13.342;2022-10-31T04:12:16;93304.16;;;14.68;44.62
39613;BME280;25303;48.896;13.342;2022-10-31T04:15:10;93304.47;;;14.65;44.69
39613;BME280;25303;48.896;13.342;2022-10-31T04:17:57;93305.66;;;14.54;45.28
39613;BME280;25303;48.896;13.342;2022-10-31T04:20:42;93313.94;;;14.50;45.18
39613;BME280;25303;48.896;13.342;2022-10-31T04:23:27;93312.50;;;14.47;45.56
39613;BME280;25303;48.896;13.342;2022-10-31T04:26:11;93315.44;;;14.44;45.65
39613;BME280;25303;48.896;13.342;2022-10-31T04:28:57;93320.94;;;14.41;45.67
39613;BME280;25303;48.896;13.342;2022-10-31T04:31:43;93322.88;;;14.39;45.76
39613;BME280;25303;48.896;13.342;2022-10-31T04:34:26;93315.28;;;14.37;46.01
39613;BME280;25303;48.896;13.342;2022-10-31T04:37:09;93313.84;;;14.35;45.76
39613;BME280;25303;48.896;13.342;2022-10-31T04:39:53;93320.16;;;14.32;46.25
39613;BME280;25303;48.896;13.342;2022-10-31T04:43:07;93320.34;;;14.31;46.08
39613;BME280;25303;48.896;13.342;2022-10-31T04:45:52;93315.31;;;14.29;46.47
39613;BME280;25303;48.896;13.342;2022-10-31T04:48:38;93310.47;;;14.26;46.39
39613;BME280;25303;48.896;13.342;2022-10-31T04:51:21;93309.81;;;14.24;46.36
39613;BME280;25303;48.896;13.342;2022-10-31T04:54:05;93316.16;;;14.21;46.29
39613;BME280;25303;48.896;13.342;2022-10-31T04:56:48;93309.53;;;14.19;46.19
39613;BME280;25303;48.896;13.342;2022-10-31T04:59:35;93313.88;;;14.18;46.17
39613;BME280;25303;48.896;13.342;2022-10-31T05:02:18;93313.25;;;14.16;45.75
39613;BME280;25303;48.896;13.342;2022-10-31T05:05:09;93315.69;;;14.18;46.07
39613;BME280;25303;48.896;13.342;2022-10-31T05:07:53;93311.63;;;14.15;46.01
39613;BME280;25303;48.896;13.342;2022-10-31T05:10:38;93303.56;;;14.10;46.14
39613;BME280;25303;48.896;13.342;2022-10-31T05:13:21;93312.63;;;14.06;46.71
39613;BME280;25303;48.896;13.342;2022-10-31T05:16:29;93316.53;;;14.02;46.65
39613;BME280;25303;48.896;13.342;2022-10-31T05:19:51;93311.84;;;13.97;46.62
39613;BME280;25303;48.896;13.342;2022-10-31T05:22:55;93313.00;;;13.94;46.73
39613;BME280;25303;48.896;13.342;2022-10-31T05:25:40;93307.97;;;13.93;47.01
39613;BME280;25303;48.896;13.342;2022-10-31T05:28:23;93313.31;;;13.91;46.87
39613;BME280;25303;48.896;13.342;2022-10-31T05:31:06;93308.31;;;13.90;47.11
39613;BME280;25303;48.896;13.342;2022-10-31T05:33:49;93310.09;;;13.89;47.13
39613;BME280;25303;48.896;13.342;2022-10-31T05:36:38;93318.69;;;13.90;47.71
39613;BME280;25303;48.896;13.342;2022-10-31T05:39:28;93320.44;;;13.89;47.63
39613;BME280;25303;48.896;13.342;2022-10-31T05:42:17;93317.84;;;13.89;47.70
39613;BME280;25303;48.896;13.342;2022-10-31T05:45:01;93320.44;;;13.89;48.07
39613;BME280;25303;48.896;13.342;2022-10-31T05:47:56;93320.44;;;13.89;48.12
39613;BME280;25303;48.896;13.342;2022-10-31T05:50:59;93318.81;;;13.88;47.96
39613;BME280;25303;48.896;13.342;2022-10-31T05:53:41;93319.66;;;13.89;48.00
39613;BME280;25303;48.896;13.342;2022-10-31T05:56:28;93327.41;;;13.89;48.00
39613;BME280;25303;48.896;13.342;2022-10-31T05:59:10;93327.56;;;13.87;48.04
39613;BME280;25303;48.896;13.342;2022-10-31T06:01:54;93322.72;;;13.84;48.08
39613;BME280;25303;48.896;13.342;2022-10-31T06:04:48;93320.31;;;13.82;48.11
39613;BME280;25303;48.896;13.342;2022-10-31T06:07:32;93317.72;;;13.82;48.10
39613;BME280;25303;48.896;13.342;2022-10-31T06:10:16;93328.84;;;13.83;48.30
39613;BME280;25303;48.896;13.342;2022-10-31T06:13:05;93328.84;;;13.83;48.29
39613;BME280;25303;48.896;13.342;2022-10-31T06:15:55;93330.47;;;13.84;48.60
39613;BME280;25303;48.896;13.342;2022-10-31T06:18:45;93330.31;;;13.86;48.55
39613;BME280;25303;48.896;13.342;2022-10-31T06:21:28;93335.31;;;13.87;48.50
39613;BME280;25303;48.896;13.342;2022-10-31T06:24:11;93331.44;;;13.91;48.63
39613;BME280;25303;48.896;13.342;2022-10-31T06:27:23;93338.72;;;13.96;48.46
39613;BME280;25303;48.896;13.342;2022-10-31T06:30:10;93333.72;;;13.94;48.61
39613;BME280;25303;48.896;13.342;2022-10-31T06:32:53;93331.91;;;13.95;48.51
39613;BME280;25303;48.896;13.342;2022-10-31T06:35:36;93332.56;;;13.97;48.50
39613;BME280;25303;48.896;13.342;2022-10-31T06:38:19;93332.56;;;13.97;48.48
39613;BME280;25303;48.896;13.342;2022-10-31T06:41:03;93330.28;;;14.02;48.46
39613;BME280;25303;48.896;13.342;2022-10-31T06:43:56;93329.97;;;14.05;47.99
39613;BME280;25303;48.896;13.342;2022-10-31T06:46:59;93334.00;;;14.08;48.01
39613;BME280;25303;48.896;13.342;2022-10-31T06:50:03;93335.56;;;14.17;47.68
39613;BME280;25303;48.896;13.342;2022-10-31T06:52:50;93338.47;;;14.22;48.03
39613;BME280;25303;48.896;13.342;2022-10-31T06:55:34;93339.78;;;14.26;48.12
39613;BME280;25303;48.896;13.342;2022-10-31T06:58:17;93330.84;;;14.29;48.03
39613;BME280;25303;48.896;13.342;2022-10-31T07:01:01;93342.66;;;14.32;48.05
39613;BME280;25303;48.896;13.342;2022-10-31T07:03:46;93344.63;;;14.30;48.22
39613;BME280;25303;48.896;13.342;2022-10-31T07:06:29;93344.59;;;14.38;48.38
39613;BME280;25303;48.896;13.342;2022-10-31T07:09:12;93345.69;;;14.43;48.55
39613;BME280;25303;48.896;13.342;2022-10-31T07:11:55;93338.75;;;14.44;48.35
39613;BME280;25303;48.896;13.342;2022-10-31T07:14:38;93343.88;;;14.52;48.09
39613;BME280;25303;48.896;13.342;2022-10-31T07:17:23;93344.50;;;14.63;48.19
39613;BME280;25303;48.896;13.342;2022-10-31T07:20:14;93344.66;;;14.69;47.94
39613;BME280;25303;48.896;13.342;2022-10-31T07:22:57;93346.72;;;14.74;48.09
39613;BME280;25303;48.896;13.342;2022-10-31T07:25:44;93342.31;;;14.83;48.13
39613;BME280;25303;48.896;13.342;2022-10-31T07:28:34;93345.81;;;14.90;48.14
39613;BME280;25303;48.896;13.342;2022-10-31T07:31:20;93337.19;;;14.98;48.05
39613;BME280;25303;48.896;13.342;2022-10-31T07:34:04;93344.13;;;15.06;48.26
39613;BME280;25303;48.896;13.342;2022-10-31T07:37:17;93339.53;;;15.16;48.31
39613;BME280;25303;48.896;13.342;2022-10-31T07:40:00;93345.63;;;15.23;48.36
39613;BME280;25303;48.896;13.342;2022-10-31T07:42:46;93345.91;;;15.28;48.41
39613;BME280;25303;48.896;13.342;2022-10-31T07:45:50;93339.81;;;15.44;48.39
39613;BME280;25303;48.896;13.342;2022-10-31T07:49:05;93339.38;;;15.56;48.43
39613;BME280;25303;48.896;13.342;2022-10-31T07:52:07;93339.78;;;15.68;48.15
39613;BME280;25303;48.896;13.342;2022-10-31T07:55:14;93338.72;;;15.77;47.76
39613;BME280;25303;48.896;13.342;2022-10-31T07:58:03;93334.91;;;15.88;47.27
39613;BME280;25303;48.896;13.342;2022-10-31T08:00:52;93338.97;;;16.05;46.83
39613;BME280;25303;48.896;13.342;2022-10-31T08:03:45;93338.44;;;16.25;46.52
39613;BME280;25303;48.896;13.342;2022-10-31T08:06:46;93336.28;;;16.44;46.63
39613;BME280;25303;48.896;13.342;2022-10-31T08:09:44;93334.50;;;16.59;46.32
39613;BME280;25303;48.896;13.342;2022-10-31T08:12:37;93338.50;;;16.77;46.08
39613;BME280;25303;48.896;13.342;2022-10-31T08:15:22;93333.06;;;16.93;45.67
39613;BME280;25303;48.896;13.342;2022-10-31T08:18:05;93327.75;;;17.16;45.22
39613;BME280;25303;48.896;13.342;2022-10-31T08:20:53;93337.75;;;17.41;44.95
39613;BME280;25303;48.896;13.342;2022-10-31T08:23:37;93327.34;;;17.63;44.80
39613;BME280;25303;48.896;13.342;2022-10-31T08:26:21;93328.31;;;17.84;44.58
39613;BME280;25303;48.896;13.342;2022-10-31T08:29:08;93339.69;;;18.04;44.92
39613;BME280;25303;48.896;13.342;2022-10-31T08:31:52;93326.81;;;18.25;44.03
39613;BME280;25303;48.896;13.342;2022-10-31T08:34:53;93329.31;;;18.46;43.48
39613;BME280;25303;48.896;13.342;2022-10-31T08:37:55;93328.81;;;18.71;44.04
39613;BME280;25303;48.896;13.342;2022-10-31T08:40:40;93325.94;;;18.94;43.32
39613;BME280;25303;48.896;13.342;2022-10-31T08:43:23;93328.19;;;19.11;42.94
39613;BME280;25303;48.896;13.342;2022-10-31T08:46:07;93319.38;;;19.32;42.69
39613;BME280;25303;48.896;13.342;2022-10-31T08:48:51;93318.22;;;19.62;42.85
39613;BME280;25303;48.896;13.342;2022-10-31T08:51:35;93317.22;;;19.89;42.71
39613;BME280;25303;48.896;13.342;2022-10-31T08:54:18;93312.38;;;20.13;42.50
39613;BME280;25303;48.896;13.342;2022-10-31T08:57:03;93309.72;;;20.33;42.14
39613;BME280;25303;48.896;13.342;2022-10-31T08:59:55;93310.66;;;20.53;42.12
39613;BME280;25303;48.896;13.342;2022-10-31T09:02:41;93309.59;;;20.74;42.16
39613;BME280;25303;48.896;13.342;2022-10-31T09:05:25;93309.09;;;20.97;41.59
39613;BME280;25303;48.896;13.342;2022-10-31T09:08:11;93314.00;;;21.19;41.65
39613;BME280;25303;48.896;13.342;2022-10-31T09:10:59;93309.44;;;21.39;41.80
39613;BME280;25303;48.896;13.342;2022-10-31T09:14:14;93306.88;;;21.65;41.33
39613;BME280;25303;48.896;13.342;2022-10-31T09:17:29;93298.06;;;21.84;41.37
39613;BME280;25303;48.896;13.342;2022-10-31T09:20:37;93304.72;;;22.06;41.01
39613;BME280;25303;48.896;13.342;2022-10-31T09:23:22;93302.78;;;22.20;41.08
39613;BME280;25303;48.896;13.342;2022-10-31T09:26:05;93308.47;;;22.35;40.56
39613;BME280;25303;48.896;13.342;2022-10-31T09:28:51;93303.34;;;22.47;40.93
39613;BME280;25303;48.896;13.342;2022-10-31T09:31:34;93302.25;;;22.55;40.79
39613;BME280;25303;48.896;13.342;2022-10-31T09:34:37;93299.69;;;22.67;40.52
39613;BME280;25303;48.896;13.342;2022-10-31T09:37:26;93297.09;;;22.79;40.27
39613;BME280;25303;48.896;13.342;2022-10-31T09:40:09;93296.38;;;22.90;39.93
39613;BME280;25303;48.896;13.342;2022-10-31T09:43:00;93295.03;;;22.99;39.29
39613;BME280;25303;48.896;13.342;2022-10-31T09:45:53;93293.69;;;23.09;39.33
39613;BME280;25303;48.896;13.342;2022-10-31T09:49:00;93299.41;;;23.24;39.34
39613;BME280;25303;48.896;13.342;2022-10-31T09:52:03;93288.31;;;23.34;37.73
39613;BME280;25303;48.896;13.342;2022-10-31T09:55:00;93293.72;;;23.39;36.67
39613;BME280;25303;48.896;13.342;2022-10-31T09:57:46;93281.50;;;23.45;35.92
39613;BME280;25303;48.896;13.342;2022-10-31T10:00:31;93277.53;;;23.54;35.96
39613;BME280;25303;48.896;13.342;2022-10-31T10:03:24;93275.25;;;23.70;35.43
39613;BME280;25303;48.896;13.342;2022-10-31T10:06:14;93278.59;;;23.89;35.45
39613;BME280;25303;48.896;13.342;2022-10-31T10:09:26;93274.38;;;24.00;34.01
39613;BME280;25303;48.896;13.342;2022-10-31T10:12:57;93268.22;;;24.06;34.46
39613;BME280;25303;48.896;13.342;2022-10-31T10:16:03;93268.56;;;24.21;34.30
39613;BME280;25303;48.896;13.342;2022-10-31T10:19:02;93268.06;;;24.24;33.44
39613;BME280;25303;48.896;13.342;2022-10-31T10:21:52;93272.78;;;24.22;33.90
39613;BME280;25303;48.896;13.342;2022-10-31T10:24:53;93267.59;;;24.27;33.56
39613;BME280;25303;48.896;13.342;2022-10-31T10:27:47;93269.31;;;24.34;34.06
39613;BME280;25303;48.896;13.342;2022-10-31T10:30:35;93266.31;;;24.42;34.59
39613;BME280;25303;48.896;13.342;2022-10-31T10:33:23;93264.38;;;24.49;34.20
39613;BME280;25303;48.896;13.342;2022-10-31T10:36:10;93257.63;;;24.53;34.44
39613;BME280;25303;48.896;13.342;2022-10-31T10:38:58;93258.53;;;24.59;34.26
39613;BME280;25303;48.896;13.342;2022-10-31T10:41:46;93257.25;;;24.62;34.23
39613;BME280;25303;48.896;13.342;2022-10-31T10:44:47;93260.13;;;24.60;33.94
39613;BME280;25303;48.896;13.342;2022-10-31T10:47:56;93250.66;;;24.47;34.13
39613;BME280;25303;48.896;13.342;2022-10-31T10:50:48;93257.75;;;24.47;34.33
39613;BME280;25303;48.896;13.342;2022-10-31T10:53:43;93254.78;;;24.43;34.02
39613;BME280;25303;48.896;13.342;2022-10-31T10:56:56;93249.19;;;24.39;34.14
39613;BME280;25303;48.896;13.342;2022-10-31T10:59:45;93239.56;;;24.45;34.37
39613;BME280;25303;48.896;13.342;2022-10-31T11:02:30;93239.66;;;24.50;34.06
39613;BME280;25303;48.896;13.342;2022-10-31T11:05:20;93234.75;;;24.42;33.81
39613;BME280;25303;48.896;13.342;2022-10-31T11:08:05;93243.13;;;24.39;33.96
39613;BME280;25303;48.896;13.342;2022-10-31T11:10:56;93234.31;;;24.33;33.36
39613;BME280;25303;48.896;13.342;2022-10-31T11:13:41;93236.94;;;24.33;33.83
39613;BME280;25303;48.896;13.342;2022-10-31T11:16:32;93225.75;;;24.38;33.13
39613;BME280;25303;48.896;13.342;2022-10-31T11:19:23;93222.97;;;24.45;33.17
39613;BME280;25303;48.896;13.342;2022-10-31T11:22:14;93219.19;;;24.40;31.83
39613;BME280;25303;48.896;13.342;2022-10-31T11:24:58;93219.66;;;24.37;32.06
39613;BME280;25303;48.896;13.342;2022-10-31T11:27:41;93218.63;;;24.38;32.42
39613;BME280;25303;48.896;13.342;2022-10-31T11:30:24;93218.16;;;24.41;32.01
39613;BME280;25303;48.896;13.342;2022-10-31T11:33:17;93204.69;;;24.38;31.37
39613;BME280;25303;48.896;13.342;2022-10-31T11:36:10;93204.56;;;24.45;32.53
39613;BME280;25303;48.896;13.342;2022-10-31T11:38:58;93209.91;;;24.50;32.66
39613;BME280;25303;48.896;13.342;2022-10-31T11:41:43;93198.19;;;24.57;32.94
39613;BME280;25303;48.896;13.342;2022-10-31T11:44:27;93189.69;;;24.79;32.99
39613;BME280;25303;48.896;13.342;2022-10-31T11:47:14;93187.50;;;25.05;33.17
39613;BME280;25303;48.896;13.342;2022-10-31T11:50:02;93188.63;;;25.26;32.47
39613;BME280;25303;48.896;13.342;2022-10-31T11:52:51;93182.41;;;25.15;32.47
39613;BME280;25303;48.896;13.342;2022-10-31T11:55:37;93182.25;;;25.05;33.00
39613;BME280;25303;48.896;13.342;2022-10-31T11:58:22;93179.41;;;24.95;33.03
39613;BME280;25303;48.896;13.342;2022-10-31T12:01:08;93178.84;;;24.93;33.20
39613;BME280;25303;48.896;13.342;2022-10-31T12:04:07;93174.53;;;24.86;33.37
39613;BME280;25303;48.896;13.342;2022-10-31T12:06:54;93171.97;;;24.92;33.67
39613;BME280;25303;48.896;13.342;2022-10-31T12:09:38;93169.75;;;25.00;33.94
39613;BME280;25303;48.896;13.342;2022-10-31T12:12:39;93167.75;;;24.91;33.74
39613;BME280;25303;48.896;13.342;2022-10-31T12:15:31;93160.72;;;24.79;34.07
39613;BME280;25303;48.896;13.342;2022-10-31T12:18:31;93164.22;;;24.85;34.12
39613;BME280;25303;48.896;13.342;2022-10-31T12:21:27;93165.31;;;25.01;33.96
39613;BME280;25303;48.896;13.342;2022-10-31T12:24:17;93156.53;;;24.95;33.60
39613;BME280;25303;48.896;13.342;2022-10-31T12:27:14;93159.56;;;25.04;33.74
39613;BME280;25303;48.896;13.342;2022-10-31T12:30:13;93153.56;;;25.09;33.83
39613;BME280;25303;48.896;13.342;2022-10-31T12:33:02;93155.50;;;25.13;33.63
39613;BME280;25303;48.896;13.342;2022-10-31T12:35:58;93150.38;;;25.24;34.10
39613;BME280;25303;48.896;13.342;2022-10-31T12:39:06;93146.94;;;25.23;33.59
39613;BME280;25303;48.896;13.342;2022-10-31T12:42:00;93145.75;;;25.31;33.79
39613;BME280;25303;48.896;13.342;2022-10-31T12:44:59;93141.91;;;25.39;33.17
39613;BME280;25303;48.896;13.342;2022-10-31T12:48:05;93140.97;;;25.45;32.91
39613;BME280;25303;48.896;13.342;2022-10-31T12:50:55;93136.09;;;25.54;33.38
39613;BME280;25303;48.896;13.342;2022-10-31T12:53:52;93131.31;;;25.51;32.97
39613;BME280;25303;48.896;13.342;2022-10-31T12:56:46;93133.63;;;25.47;33.18
39613;BME280;25303;48.896;13.342;2022-10-31T12:59:37;93139.94;;;25.46;33.24
39613;BME280;25303;48.896;13.342;2022-10-31T13:02:27;93133.75;;;25.40;32.81
39613;BME280;25303;48.896;13.342;2022-10-31T13:05:17;93124.75;;;25.36;33.12
39613;BME280;25303;48.896;13.342;2022-10-31T13:08:06;93120.56;;;25.40;33.30
39613;BME280;25303;48.896;13.342;2022-10-31T13:11:00;93127.00;;;25.44;33.17
39613;BME280;25303;48.896;13.342;2022-10-31T13:13:51;93115.28;;;25.40;33.24
39613;BME280;25303;48.896;13.342;2022-10-31T13:16:39;93119.41;;;25.48;33.35
39613;BME280;25303;48.896;13.342;2022-10-31T13:19:25;93116.06;;;25.53;32.89
39613;BME280;25303;48.896;13.342;2022-10-31T13:22:13;93114.16;;;25.48;32.70
39613;BME280;25303;48.896;13.342;2022-10-31T13:25:03;93109.97;;;25.52;32.66
39613;BME280;25303;48.896;13.342;2022-10-31T13:27:51;93102.50;;;25.66;33.02
39613;BME280;25303;48.896;13.342;2022-10-31T13:30:38;93099.22;;;25.76;32.53
39613;BME280;25303;48.896;13.342;2022-10-31T13:33:27;93098.47;;;25.81;32.55
39613;BME280;25303;48.896;13.342;2022-10-31T13:36:20;93095.84;;;25.81;32.14
39613;BME280;25303;48.896;13.342;2022-10-31T13:39:18;93094.59;;;25.66;32.38
39613;BME280;25303;48.896;13.342;2022-10-31T13:42:11;93095.19;;;25.51;32.37
39613;BME280;25303;48.896;13.342;2022-10-31T13:45:11;93088.97;;;25.23;32.40
39613;BME280;25303;48.896;13.342;2022-10-31T13:47:58;93090.09;;;25.10;32.81
39613;BME280;25303;48.896;13.342;2022-10-31T13:50:55;93083.56;;;24.96;32.75
39613;BME280;25303;48.896;13.342;2022-10-31T13:53:44;93078.16;;;24.85;33.20
39613;BME280;25303;48.896;13.342;2022-10-31T13:56:29;93083.81;;;24.77;33.28
39613;BME280;25303;48.896;13.342;2022-10-31T13:59:18;93076.38;;;24.74;33.23
39613;BME280;25303;48.896;13.342;2022-10-31T14:02:13;93076.19;;;24.64;33.22
39613;BME280;25303;48.896;13.342;2022-10-31T14:04:59;93074.50;;;24.57;33.50
39613;BME280;25303;48.896;13.342;2022-10-31T14:07:45;93071.78;;;24.52;33.58
39613;BME280;25303;48.896;13.342;2022-10-31T14:10:31;93065.09;;;24.45;33.59
39613;BME280;25303;48.896;13.342;2022-10-31T14:13:18;93069.63;;;24.32;33.76
39613;BME280;25303;48.896;13.342;2022-10-31T14:16:05;93073.53;;;24.18;33.77
39613;BME280;25303;48.896;13.342;2022-10-31T14:19:01;93064.44;;;24.08;34.01
39613;BME280;25303;48.896;13.342;2022-10-31T14:21:47;93065.94;;;23.92;34.51
39613;BME280;25303;48.896;13.342;2022-10-31T14:24:35;93063.50;;;23.74;34.59
39613;BME280;25303;48.896;13.342;2022-10-31T14:27:42;93063.53;;;23.50;35.34
39613;BME280;25303;48.896;13.342;2022-10-31T14:30:28;93061.88;;;23.32;35.66
39613;BME280;25303;48.896;13.342;2022-10-31T14:33:16;93062.03;;;23.18;35.96
39613;BME280;25303;48.896;13.342;2022-10-31T14:36:04;93059.66;;;23.05;36.18
39613;BME280;25303;48.896;13.342;2022-10-31T14:38:53;93061.47;;;22.92;36.20
39613;BME280;25303;48.896;13.342;2022-10-31T14:41:57;93062.16;;;22.76;36.99
39613;BME280;25303;48.896;13.342;2022-10-31T14:45:01;93063.84;;;22.58;37.66
39613;BME280;25303;48.896;13.342;2022-10-31T14:47:56;93060.31;;;22.34;37.35
39613;BME280;25303;48.896;13.342;2022-10-31T14:50:50;93055.94;;;22.16;37.70